La rose des vents
Donnes mto: Semaine 03/12/07 - 09/12/07 (S 49)
Date Horaire Temp. E. Hum. E. P.atmo. Pluie Vent 1mn Direction Ensoleilleme Ev.Tr. Solaire P. de rose Temp au vent Rafales
03/12/2007 00:00 11,6 C 60 % 1009,3 hPa 0,0 l/m 21,7 km/h (4 Bft) O-SO 0,00 h 0,102 mm 0 W/m 4,0 C 11,6 C 29,5 km/h (5 Bft)
03/12/2007 01:00 11,8 C 58 % 1008,4 hPa 0,0 l/m 28,9 km/h (5 Bft) SO 0,00 h 0,102 mm 0 W/m 3,8 C 11,8 C 37,0 km/h (5 Bft)
03/12/2007 02:00 11,6 C 58 % 1007,4 hPa 0,0 l/m 26,5 km/h (4 Bft) SO 0,00 h 0,152 mm 0 W/m 3,5 C 11,6 C 33,4 km/h (5 Bft)
03/12/2007 03:00 11,3 C 59 % 1006,2 hPa 0,0 l/m 18,3 km/h (3 Bft) S-SO 0,00 h 0,127 mm 0 W/m 3,5 C 11,3 C 24,4 km/h (4 Bft)
03/12/2007 04:00 11,0 C 64 % 1004,9 hPa 0,0 l/m 7,9 km/h (2 Bft) S-SE 0,00 h 0,102 mm 0 W/m 4,6 C 11,0 C 11,7 km/h (2 Bft)
03/12/2007 05:00 10,8 C 67 % 1003,4 hPa 0,0 l/m 14,6 km/h (3 Bft) O-SO 0,00 h 0,051 mm 0 W/m 4,8 C 10,8 C 23,0 km/h (4 Bft)
03/12/2007 06:00 11,1 C 69 % 1002,1 hPa 0,0 l/m 34,0 km/h (5 Bft) O-SO 0,00 h 0,076 mm 0 W/m 5,7 C 11,1 C 46,4 km/h (6 Bft)
03/12/2007 07:00 11,1 C 71 % 1001,4 hPa 0,0 l/m 33,0 km/h (5 Bft) O-SO 0,00 h 0,127 mm 5 W/m 6,1 C 11,1 C 45,2 km/h (6 Bft)
03/12/2007 08:00 11,8 C 67 % 1000,9 hPa 0,0 l/m 34,2 km/h (5 Bft) SO 0,55 h 0,127 mm 64 W/m 5,9 C 11,8 C 45,6 km/h (6 Bft)
03/12/2007 09:00 13,6 C 60 % 1001,0 hPa 0,0 l/m 29,5 km/h (5 Bft) SO 1,00 h 0,178 mm 206 W/m 5,8 C 13,6 C 39,1 km/h (6 Bft)
03/12/2007 10:00 15,8 C 45 % 1001,7 hPa 0,0 l/m 25,5 km/h (4 Bft) O-SO 1,00 h 0,254 mm 308 W/m 3,7 C 15,8 C 35,8 km/h (5 Bft)
03/12/2007 11:00 16,6 C 36 % 1001,9 hPa 0,0 l/m 21,3 km/h (4 Bft) O 1,00 h 0,356 mm 372 W/m 1,3 C 16,6 C 32,8 km/h (5 Bft)
03/12/2007 12:00 15,9 C 33 % 1002,1 hPa 0,0 l/m 29,9 km/h (5 Bft) O-NO 1,00 h 0,381 mm 394 W/m -0,2 C 15,9 C 43,6 km/h (6 Bft)
03/12/2007 13:00 15,8 C 32 % 1001,7 hPa 0,0 l/m 29,4 km/h (5 Bft) O-NO 1,00 h 0,457 mm 360 W/m -0,8 C 15,8 C 43,4 km/h (6 Bft)
03/12/2007 14:00 15,8 C 34 % 1001,5 hPa 0,0 l/m 28,5 km/h (4 Bft) O-NO 1,00 h 0,432 mm 277 W/m -0,0 C 15,8 C 40,8 km/h (6 Bft)
03/12/2007 15:00 15,1 C 38 % 1001,4 hPa 0,0 l/m 31,0 km/h (5 Bft) O-NO 1,00 h 0,381 mm 167 W/m 1,0 C 15,1 C 45,1 km/h (6 Bft)
03/12/2007 16:00 14,6 C 37 % 1001,3 hPa 0,0 l/m 17,1 km/h (3 Bft) O-NO 0,75 h 0,330 mm 49 W/m -0,0 C 14,6 C 29,2 km/h (5 Bft)
03/12/2007 17:00 13,7 C 37 % 1002,8 hPa 0,0 l/m 12,5 km/h (3 Bft) S-SE 0,00 h 0,152 mm 5 W/m -0,9 C 13,7 C 18,3 km/h (3 Bft)
03/12/2007 18:00 13,9 C 31 % 1002,8 hPa 0,0 l/m 15,5 km/h (3 Bft) N 0,00 h 0,102 mm 0 W/m -2,9 C 13,9 C 27,8 km/h (4 Bft)
03/12/2007 19:00 13,5 C 29 % 1004,4 hPa 0,0 l/m 9,3 km/h (2 Bft) E 0,00 h 0,152 mm 0 W/m -4,2 C 13,5 C 15,1 km/h (3 Bft)
03/12/2007 20:00 13,7 C 26 % 1004,9 hPa 0,0 l/m 24,8 km/h (4 Bft) O 0,00 h 0,102 mm 0 W/m -5,3 C 13,7 C 35,2 km/h (5 Bft)
03/12/2007 21:00 13,6 C 25 % 1005,7 hPa 0,0 l/m 17,7 km/h (3 Bft) O-NO 0,00 h 0,229 mm 0 W/m -6,0 C 13,6 C 23,8 km/h (4 Bft)
03/12/2007 22:00 12,1 C 30 % 1006,2 hPa 0,0 l/m 19,2 km/h (3 Bft) O-SO 0,00 h 0,178 mm 0 W/m -5,2 C 12,1 C 25,8 km/h (4 Bft)
03/12/2007 23:00 11,2 C 34 % 1006,2 hPa 0,0 l/m 22,3 km/h (4 Bft) O 0,00 h 0,152 mm 0 W/m -4,0 C 11,2 C 31,5 km/h (5 Bft)
04/12/2007 00:00 11,3 C 36 % 1006,3 hPa 0,0 l/m 20,8 km/h (4 Bft) O 0,00 h 0,178 mm 0 W/m -3,4 C 11,3 C 29,8 km/h (5 Bft)
04/12/2007 01:00 10,8 C 36 % 1006,2 hPa 0,0 l/m 15,4 km/h (3 Bft) O 0,00 h 0,152 mm 0 W/m -3,6 C 10,7 C 21,7 km/h (4 Bft)
04/12/2007 02:00 10,9 C 41 % 1005,8 hPa 0,0 l/m 23,1 km/h (4 Bft) O 0,00 h 0,127 mm 0 W/m -1,9 C 10,9 C 33,6 km/h (5 Bft)
04/12/2007 03:00 10,8 C 43 % 1005,8 hPa 0,0 l/m 25,1 km/h (4 Bft) O-SO 0,00 h 0,152 mm 0 W/m -1,3 C 10,8 C 34,1 km/h (5 Bft)
04/12/2007 04:00 10,9 C 41 % 1005,9 hPa 0,0 l/m 15,7 km/h (3 Bft) O-SO 0,00 h 0,152 mm 0 W/m -1,8 C 10,9 C 21,8 km/h (4 Bft)
04/12/2007 05:00 9,3 C 42 % 1006,8 hPa 0,0 l/m 3,2 km/h (1 Bft) N 0,00 h 0,127 mm 0 W/m -2,9 C 9,1 C 5,1 km/h (1 Bft)
04/12/2007 06:00 10,0 C 38 % 1007,1 hPa 0,0 l/m 9,1 km/h (2 Bft) O 0,00 h 0,051 mm 0 W/m -3,5 C 9,4 C 12,5 km/h (3 Bft)
04/12/2007 07:00 8,7 C 42 % 1007,5 hPa 0,0 l/m 3,1 km/h (1 Bft) O-NO 0,02 h 0,076 mm 10 W/m -3,4 C 8,5 C 4,6 km/h (1 Bft)
04/12/2007 08:00 9,5 C 41 % 1008,1 hPa 0,0 l/m 4,7 km/h (1 Bft) NO 0,63 h 0,025 mm 63 W/m -3,2 C 9,0 C 6,9 km/h (2 Bft)
04/12/2007 09:00 13,0 C 35 % 1008,7 hPa 0,0 l/m 1,9 km/h (1 Bft) NO 1,00 h 0,076 mm 201 W/m -2,2 C 13,0 C 3,1 km/h (1 Bft)
04/12/2007 10:00 14,5 C 36 % 1009,4 hPa 0,0 l/m 3,2 km/h (1 Bft) E-SE 1,00 h 0,127 mm 305 W/m -0,6 C 14,5 C 5,0 km/h (1 Bft)
04/12/2007 11:00 15,8 C 31 % 1010,5 hPa 0,0 l/m 3,8 km/h (1 Bft) S 1,00 h 0,203 mm 369 W/m -1,1 C 15,8 C 6,0 km/h (2 Bft)
04/12/2007 12:00 16,1 C 41 % 1011,1 hPa 0,0 l/m 5,7 km/h (1 Bft) E-NE 1,00 h 0,229 mm 384 W/m 2,6 C 16,1 C 9,1 km/h (2 Bft)
04/12/2007 13:00 15,6 C 56 % 1011,9 hPa 0,0 l/m 3,9 km/h (1 Bft) SE 1,00 h 0,254 mm 354 W/m 6,8 C 15,6 C 7,4 km/h (2 Bft)
04/12/2007 14:00 15,3 C 64 % 1012,7 hPa 0,0 l/m 2,5 km/h (1 Bft) S-SE 1,00 h 0,203 mm 245 W/m 8,5 C 15,3 C 5,7 km/h (1 Bft)
04/12/2007 15:00 14,8 C 67 % 1013,5 hPa 0,0 l/m 1,2 km/h (1 Bft) E 0,78 h 0,152 mm 145 W/m 8,7 C 14,8 C 2,9 km/h (1 Bft)
04/12/2007 16:00 13,3 C 71 % 1014,7 hPa 0,0 l/m 0,1 km/h (0 Bft) E 0,25 h 0,076 mm 33 W/m 8,2 C 13,3 C 0,4 km/h (0 Bft)
04/12/2007 17:00 11,3 C 75 % 1015,9 hPa 0,0 l/m 2,8 km/h (1 Bft) NO 0,00 h 0,025 mm 0 W/m 7,1 C 11,3 C 4,2 km/h (1 Bft)
04/12/2007 18:00 10,4 C 74 % 1016,8 hPa 0,0 l/m 5,1 km/h (1 Bft) O-NO 0,00 h 0,025 mm 0 W/m 6,0 C 10,4 C 7,2 km/h (2 Bft)
04/12/2007 19:00 9,8 C 65 % 1017,9 hPa 0,0 l/m 7,0 km/h (2 Bft) O-NO 0,00 h 0,025 mm 0 W/m 3,5 C 9,1 C 10,2 km/h (2 Bft)
04/12/2007 20:00 9,8 C 56 % 1018,7 hPa 0,0 l/m 10,4 km/h (2 Bft) O-NO 0,00 h 0,051 mm 0 W/m 1,4 C 8,6 C 14,4 km/h (3 Bft)
04/12/2007 21:00 9,5 C 52 % 1019,0 hPa 0,0 l/m 11,4 km/h (2 Bft) O-NO 0,00 h 0,076 mm 0 W/m 0,1 C 7,9 C 15,3 km/h (3 Bft)
04/12/2007 22:00 9,3 C 49 % 1019,8 hPa 0,0 l/m 8,3 km/h (2 Bft) O-NO 0,00 h 0,076 mm 0 W/m -0,7 C 8,2 C 12,0 km/h (2 Bft)
04/12/2007 23:00 9,5 C 46 % 1020,1 hPa 0,0 l/m 12,7 km/h (3 Bft) O-NO 0,00 h 0,076 mm 0 W/m -1,4 C 7,7 C 16,6 km/h (3 Bft)
05/12/2007 00:00 10,1 C 43 % 1020,4 hPa 0,0 l/m 9,0 km/h (2 Bft) O-NO 0,00 h 0,102 mm 0 W/m -1,9 C 9,7 C 12,4 km/h (3 Bft)
05/12/2007 01:00 8,5 C 47 % 1020,6 hPa 0,0 l/m 3,3 km/h (1 Bft) O-NO 0,00 h 0,076 mm 0 W/m -2,1 C 8,1 C 4,9 km/h (1 Bft)
05/12/2007 02:00 9,0 C 45 % 1020,6 hPa 0,0 l/m 8,2 km/h (2 Bft) O-NO 0,00 h 0,051 mm 0 W/m -2,2 C 7,9 C 11,8 km/h (2 Bft)
05/12/2007 03:00 9,4 C 43 % 1020,8 hPa 0,0 l/m 11,2 km/h (2 Bft) O-NO 0,00 h 0,076 mm 0 W/m -2,5 C 7,7 C 15,3 km/h (3 Bft)
05/12/2007 04:00 8,5 C 45 % 1020,6 hPa 0,0 l/m 3,2 km/h (1 Bft) N 0,00 h 0,102 mm 0 W/m -2,6 C 8,4 C 5,0 km/h (1 Bft)
05/12/2007 05:00 8,8 C 44 % 1020,9 hPa 0,0 l/m 2,3 km/h (1 Bft) N 0,00 h 0,051 mm 0 W/m -2,9 C 8,6 C 3,4 km/h (1 Bft)
05/12/2007 06:00 9,4 C 41 % 1021,4 hPa 0,0 l/m 4,8 km/h (1 Bft) O 0,00 h 0,051 mm 0 W/m -3,2 C 9,1 C 6,3 km/h (2 Bft)
05/12/2007 07:00 8,8 C 43 % 1022,0 hPa 0,0 l/m 6,3 km/h (2 Bft) O-NO 0,00 h 0,076 mm 8 W/m -3,0 C 8,1 C 9,0 km/h (2 Bft)
05/12/2007 08:00 9,2 C 44 % 1022,6 hPa 0,0 l/m 4,8 km/h (1 Bft) NO 0,35 h 0,051 mm 44 W/m -2,6 C 8,8 C 7,0 km/h (2 Bft)
05/12/2007 09:00 10,9 C 43 % 1023,1 hPa 0,0 l/m 2,8 km/h (1 Bft) N-NO 0,87 h 0,051 mm 184 W/m -1,1 C 10,8 C 4,3 km/h (1 Bft)
05/12/2007 10:00 13,5 C 42 % 1023,3 hPa 0,0 l/m 0,9 km/h (0 Bft) S 0,93 h 0,102 mm 282 W/m 0,8 C 13,5 C 2,3 km/h (1 Bft)
05/12/2007 11:00 15,1 C 41 % 1023,0 hPa 0,0 l/m 2,3 km/h (1 Bft) S 1,00 h 0,152 mm 355 W/m 1,9 C 15,1 C 4,6 km/h (1 Bft)
05/12/2007 12:00 15,9 C 42 % 1022,6 hPa 0,0 l/m 6,7 km/h (2 Bft) S-SE 1,00 h 0,203 mm 377 W/m 2,8 C 15,9 C 10,0 km/h (2 Bft)
05/12/2007 13:00 15,7 C 44 % 1022,3 hPa 0,0 l/m 12,6 km/h (3 Bft) S 1,00 h 0,254 mm 352 W/m 3,5 C 15,7 C 17,5 km/h (3 Bft)
05/12/2007 14:00 15,5 C 48 % 1021,6 hPa 0,0 l/m 9,2 km/h (2 Bft) S 1,00 h 0,279 mm 270 W/m 4,7 C 15,5 C 12,9 km/h (3 Bft)
05/12/2007 15:00 15,2 C 53 % 1021,4 hPa 0,0 l/m 9,1 km/h (2 Bft) S 1,00 h 0,203 mm 156 W/m 5,7 C 15,2 C 12,2 km/h (2 Bft)
05/12/2007 16:00 13,9 C 61 % 1021,5 hPa 0,0 l/m 4,2 km/h (1 Bft) S 0,75 h 0,152 mm 38 W/m 6,4 C 13,9 C 6,1 km/h (2 Bft)
05/12/2007 17:00 11,7 C 72 % 1021,4 hPa 0,0 l/m 2,6 km/h (1 Bft) O-NO 0,00 h 0,051 mm 0 W/m 6,8 C 11,7 C 4,1 km/h (1 Bft)
05/12/2007 18:00 10,1 C 75 % 1021,3 hPa 0,0 l/m 1,1 km/h (1 Bft) O-NO 0,00 h 0,025 mm 0 W/m 5,8 C 10,1 C 2,5 km/h (1 Bft)
05/12/2007 19:00 9,1 C 77 % 1021,3 hPa 0,0 l/m 2,2 km/h (1 Bft) O-NO 0,00 h 0,025 mm 0 W/m 5,2 C 9,0 C 4,0 km/h (1 Bft)
05/12/2007 20:00 8,7 C 76 % 1021,5 hPa 0,0 l/m 3,5 km/h (1 Bft) O-NO 0,00 h 0,025 mm 0 W/m 4,8 C 8,5 C 5,4 km/h (1 Bft)
05/12/2007 21:00 8,4 C 75 % 1021,1 hPa 0,0 l/m 2,8 km/h (1 Bft) NO 0,00 h 0,025 mm 0 W/m 4,2 C 8,3 C 4,6 km/h (1 Bft)
05/12/2007 22:00 7,8 C 76 % 1020,2 hPa 0,0 l/m 3,7 km/h (1 Bft) N-NE 0,00 h 0,025 mm 0 W/m 3,9 C 7,5 C 5,8 km/h (2 Bft)
05/12/2007 23:00 8,1 C 74 % 1019,8 hPa 0,0 l/m 3,4 km/h (1 Bft) N 0,00 h 0,025 mm 0 W/m 3,7 C 7,9 C 5,6 km/h (1 Bft)
06/12/2007 00:00 7,7 C 74 % 1019,4 hPa 0,0 l/m 3,9 km/h (1 Bft) N 0,00 h 0,025 mm 0 W/m 3,2 C 7,4 C 6,4 km/h (2 Bft)
06/12/2007 01:00 7,4 C 77 % 1018,5 hPa 0,0 l/m 3,4 km/h (1 Bft) N 0,00 h 0,025 mm 0 W/m 3,6 C 7,1 C 5,7 km/h (1 Bft)
06/12/2007 02:00 8,0 C 77 % 1018,3 hPa 0,0 l/m 2,5 km/h (1 Bft) N 0,00 h 0,025 mm 0 W/m 4,3 C 7,9 C 4,8 km/h (1 Bft)
06/12/2007 03:00 8,3 C 79 % 1018,1 hPa 0,0 l/m 2,2 km/h (1 Bft) N 0,00 h 0,025 mm 0 W/m 4,9 C 8,3 C 4,5 km/h (1 Bft)
06/12/2007 04:00 8,7 C 81 % 1017,8 hPa 0,0 l/m 3,8 km/h (1 Bft) N-NO 0,00 h 0,025 mm 0 W/m 5,6 C 8,5 C 6,3 km/h (2 Bft)
06/12/2007 05:00 9,5 C 79 % 1017,9 hPa 0,0 l/m 3,1 km/h (1 Bft) N-NO 0,00 h 0,025 mm 0 W/m 6,0 C 9,4 C 5,3 km/h (1 Bft)
06/12/2007 06:00 9,3 C 79 % 1017,9 hPa 0,0 l/m 1,5 km/h (1 Bft) N-NO 0,00 h 0,025 mm 0 W/m 5,8 C 9,2 C 2,9 km/h (1 Bft)
06/12/2007 07:00 9,4 C 79 % 1018,7 hPa 0,0 l/m 2,0 km/h (1 Bft) O 0,00 h 0,025 mm 8 W/m 6,0 C 9,3 C 3,2 km/h (1 Bft)
06/12/2007 08:00 9,9 C 76 % 1019,1 hPa 0,0 l/m 3,1 km/h (1 Bft) O 0,50 h 0,000 mm 48 W/m 5,9 C 9,8 C 4,5 km/h (1 Bft)
06/12/2007 09:00 12,2 C 70 % 1019,4 hPa 0,0 l/m 1,6 km/h (1 Bft) O-NO 0,97 h 0,025 mm 184 W/m 6,8 C 12,2 C 2,6 km/h (1 Bft)
06/12/2007 10:00 13,9 C 66 % 1019,8 hPa 0,0 l/m 1,9 km/h (1 Bft) E-SE 1,00 h 0,102 mm 334 W/m 7,7 C 13,9 C 3,6 km/h (1 Bft)
06/12/2007 11:00 13,8 C 70 % 1019,5 hPa 0,0 l/m 3,7 km/h (1 Bft) S-SO 0,63 h 0,178 mm 236 W/m 8,4 C 13,8 C 5,6 km/h (1 Bft)
06/12/2007 12:00 14,2 C 69 % 1019,1 hPa 0,0 l/m 6,5 km/h (2 Bft) SO 0,60 h 0,127 mm 276 W/m 8,6 C 14,2 C 9,0 km/h (2 Bft)
06/12/2007 13:00 14,0 C 72 % 1018,7 hPa 0,0 l/m 6,1 km/h (2 Bft) S-SE 0,85 h 0,178 mm 274 W/m 9,1 C 14,0 C 8,8 km/h (2 Bft)
06/12/2007 14:00 14,5 C 72 % 1018,4 hPa 0,0 l/m 3,7 km/h (1 Bft) SE 0,88 h 0,152 mm 234 W/m 9,5 C 14,5 C 6,1 km/h (2 Bft)
06/12/2007 15:00 13,6 C 76 % 1018,1 hPa 0,0 l/m 2,6 km/h (1 Bft) E 0,63 h 0,127 mm 107 W/m 9,5 C 13,6 C 4,4 km/h (1 Bft)
06/12/2007 16:00 12,8 C 79 % 1018,4 hPa 0,0 l/m 0,3 km/h (0 Bft) E 0,70 h 0,076 mm 36 W/m 9,2 C 12,8 C 0,8 km/h (0 Bft)
06/12/2007 17:00 11,3 C 82 % 1018,9 hPa 0,0 l/m 0,3 km/h (0 Bft) E 0,00 h 0,025 mm 0 W/m 8,3 C 11,3 C 0,6 km/h (0 Bft)
06/12/2007 18:00 10,3 C 85 % 1019,0 hPa 0,0 l/m 0,1 km/h (0 Bft) E 0,00 h 0,000 mm 0 W/m 7,9 C 10,3 C 0,3 km/h (0 Bft)
06/12/2007 19:00 9,9 C 88 % 1019,2 hPa 0,0 l/m 5,8 km/h (2 Bft) O-NO 0,00 h 0,025 mm 0 W/m 8,0 C 9,3 C 7,3 km/h (2 Bft)
06/12/2007 20:00 9,6 C 89 % 1019,0 hPa 0,0 l/m 6,7 km/h (2 Bft) O-NO 0,00 h 0,025 mm 0 W/m 7,9 C 8,9 C 8,4 km/h (2 Bft)
06/12/2007 21:00 9,3 C 89 % 1018,7 hPa 0,0 l/m 3,8 km/h (1 Bft) NO 0,00 h 0,025 mm 0 W/m 7,6 C 9,2 C 5,7 km/h (1 Bft)
06/12/2007 22:00 9,6 C 88 % 1018,2 hPa 0,0 l/m 3,6 km/h (1 Bft) O-NO 0,00 h 0,025 mm 0 W/m 7,8 C 9,5 C 5,3 km/h (1 Bft)
06/12/2007 23:00 9,7 C 86 % 1017,6 hPa 0,0 l/m 3,2 km/h (1 Bft) NO 0,00 h 0,025 mm 0 W/m 7,4 C 9,6 C 5,0 km/h (1 Bft)
07/12/2007 00:00 9,6 C 80 % 1016,9 hPa 0,0 l/m 1,5 km/h (1 Bft) NO 0,00 h 0,025 mm 0 W/m 6,3 C 9,6 C 2,3 km/h (1 Bft)
07/12/2007 01:00 9,5 C 77 % 1016,0 hPa 0,0 l/m 1,8 km/h (1 Bft) NO 0,00 h 0,025 mm 0 W/m 5,7 C 9,5 C 2,8 km/h (1 Bft)
07/12/2007 02:00 9,5 C 80 % 1015,4 hPa 0,0 l/m 4,5 km/h (1 Bft) O-NO 0,00 h 0,025 mm 0 W/m 6,1 C 9,1 C 5,9 km/h (2 Bft)
07/12/2007 03:00 9,5 C 81 % 1014,8 hPa 0,0 l/m 2,6 km/h (1 Bft) O-NO 0,00 h 0,025 mm 0 W/m 6,5 C 9,5 C 3,8 km/h (1 Bft)
07/12/2007 04:00 9,4 C 82 % 1013,7 hPa 0,0 l/m 0,7 km/h (0 Bft) NO 0,00 h 0,025 mm 0 W/m 6,5 C 9,4 C 1,7 km/h (1 Bft)
07/12/2007 05:00 9,4 C 84 % 1013,1 hPa 0,0 l/m 0,9 km/h (0 Bft) NO 0,00 h 0,025 mm 0 W/m 6,8 C 9,4 C 2,1 km/h (1 Bft)
07/12/2007 06:00 9,0 C 85 % 1012,8 hPa 0,0 l/m 1,4 km/h (1 Bft) N-NO 0,00 h 0,025 mm 0 W/m 6,6 C 9,0 C 2,8 km/h (1 Bft)
07/12/2007 07:00 8,9 C 86 % 1012,4 hPa 0,0 l/m 1,3 km/h (1 Bft) N-NO 0,00 h 0,025 mm 0 W/m 6,6 C 8,9 C 2,5 km/h (1 Bft)
07/12/2007 08:00 8,9 C 86 % 1011,7 hPa 0,0 l/m 1,5 km/h (1 Bft) N-NO 0,00 h 0,000 mm 13 W/m 6,6 C 8,8 C 3,1 km/h (1 Bft)
07/12/2007 09:00 9,0 C 85 % 1011,3 hPa 0,0 l/m 1,4 km/h (1 Bft) N 0,00 h 0,000 mm 28 W/m 6,7 C 9,0 C 2,8 km/h (1 Bft)
07/12/2007 10:00 9,7 C 82 % 1011,2 hPa 0,0 l/m 2,2 km/h (1 Bft) O-NO 0,00 h 0,025 mm 38 W/m 6,8 C 9,6 C 3,5 km/h (1 Bft)
07/12/2007 11:00 10,3 C 82 % 1010,5 hPa 0,0 l/m 1,0 km/h (0 Bft) O-NO 0,00 h 0,025 mm 55 W/m 7,4 C 10,3 C 2,1 km/h (1 Bft)
07/12/2007 12:00 10,9 C 82 % 1009,7 hPa 0,0 l/m 1,5 km/h (1 Bft) O-NO 0,00 h 0,025 mm 60 W/m 8,0 C 10,9 C 3,2 km/h (1 Bft)
07/12/2007 13:00 11,2 C 82 % 1008,8 hPa 0,0 l/m 0,7 km/h (0 Bft) O-NO 0,00 h 0,025 mm 64 W/m 8,3 C 11,2 C 1,7 km/h (1 Bft)
07/12/2007 14:00 11,3 C 84 % 1007,9 hPa 0,0 l/m 1,4 km/h (1 Bft) O-NO 0,00 h 0,025 mm 66 W/m 8,7 C 11,3 C 2,8 km/h (1 Bft)
07/12/2007 15:00 11,3 C 86 % 1007,0 hPa 0,0 l/m 2,7 km/h (1 Bft) O-NO 0,00 h 0,025 mm 60 W/m 9,0 C 11,3 C 4,2 km/h (1 Bft)
07/12/2007 16:00 11,1 C 85 % 1006,3 hPa 0,0 l/m 1,1 km/h (1 Bft) O-NO 0,07 h 0,025 mm 29 W/m 8,7 C 11,1 C 2,0 km/h (1 Bft)
07/12/2007 17:00 10,0 C 87 % 1005,6 hPa 0,0 l/m 2,0 km/h (1 Bft) N-NE 0,00 h 0,025 mm 0 W/m 7,9 C 10,0 C 3,6 km/h (1 Bft)
07/12/2007 18:00 9,4 C 88 % 1005,0 hPa 0,0 l/m 2,8 km/h (1 Bft) N-NO 0,00 h 0,000 mm 0 W/m 7,5 C 9,3 C 4,6 km/h (1 Bft)
07/12/2007 19:00 9,2 C 89 % 1004,8 hPa 0,0 l/m 3,4 km/h (1 Bft) N 0,00 h 0,025 mm 0 W/m 7,5 C 9,1 C 5,3 km/h (1 Bft)
07/12/2007 20:00 9,0 C 90 % 1004,8 hPa 0,0 l/m 5,5 km/h (1 Bft) O-NO 0,00 h 0,025 mm 0 W/m 7,4 C 8,3 C 7,9 km/h (2 Bft)
07/12/2007 21:00 11,5 C 69 % 1003,6 hPa 0,0 l/m 19,2 km/h (3 Bft) SO 0,00 h 0,025 mm 0 W/m 5,8 C 11,0 C 25,0 km/h (4 Bft)
07/12/2007 22:00 14,4 C 46 % 1002,7 hPa 0,0 l/m 20,9 km/h (4 Bft) O-NO 0,00 h 0,076 mm 0 W/m 2,9 C 14,4 C 31,9 km/h (5 Bft)
07/12/2007 23:00 14,2 C 45 % 1001,8 hPa 0,0 l/m 22,7 km/h (4 Bft) O 0,00 h 0,152 mm 0 W/m 2,4 C 14,2 C 35,3 km/h (5 Bft)
08/12/2007 00:00 11,7 C 54 % 1001,8 hPa 0,0 l/m 14,2 km/h (3 Bft) SO 0,00 h 0,152 mm 0 W/m 2,6 C 11,7 C 21,6 km/h (4 Bft)
08/12/2007 01:00 12,0 C 39 % 1001,0 hPa 0,0 l/m 19,3 km/h (3 Bft) O-NO 0,00 h 0,102 mm 0 W/m -1,7 C 12,0 C 27,7 km/h (4 Bft)
08/12/2007 02:00 12,4 C 36 % 1000,1 hPa 0,0 l/m 31,8 km/h (5 Bft) O-NO 0,00 h 0,152 mm 0 W/m -2,2 C 12,4 C 45,7 km/h (6 Bft)
08/12/2007 03:00 11,3 C 42 % 1001,2 hPa 0,0 l/m 27,0 km/h (4 Bft) O-SO 0,00 h 0,229 mm 0 W/m -1,1 C 11,3 C 37,0 km/h (5 Bft)
08/12/2007 04:00 10,3 C 44 % 1001,8 hPa 0,0 l/m 20,5 km/h (4 Bft) O 0,00 h 0,178 mm 0 W/m -1,3 C 10,3 C 28,5 km/h (4 Bft)
08/12/2007 05:00 11,0 C 37 % 1002,0 hPa 0,0 l/m 22,5 km/h (4 Bft) O 0,00 h 0,127 mm 0 W/m -3,3 C 11,0 C 30,9 km/h (5 Bft)
08/12/2007 06:00 11,5 C 34 % 1002,5 hPa 0,0 l/m 22,6 km/h (4 Bft) O-NO 0,00 h 0,152 mm 0 W/m -4,0 C 11,5 C 31,3 km/h (5 Bft)
08/12/2007 07:00 12,4 C 30 % 1003,3 hPa 0,0 l/m 23,6 km/h (4 Bft) O-NO 0,00 h 0,178 mm 7 W/m -4,8 C 12,4 C 33,2 km/h (5 Bft)
08/12/2007 08:00 12,9 C 29 % 1003,9 hPa 0,0 l/m 22,6 km/h (4 Bft) O-NO 0,95 h 0,203 mm 68 W/m -4,9 C 12,9 C 31,9 km/h (5 Bft)
08/12/2007 09:00 13,7 C 27 % 1004,2 hPa 0,0 l/m 24,7 km/h (4 Bft) O-NO 1,00 h 0,229 mm 197 W/m -5,0 C 13,7 C 35,2 km/h (5 Bft)
08/12/2007 10:00 15,4 C 25 % 1004,8 hPa 0,0 l/m 9,1 km/h (2 Bft) N 1,00 h 0,305 mm 303 W/m -4,5 C 15,4 C 15,0 km/h (3 Bft)
08/12/2007 11:00 16,1 C 28 % 1005,6 hPa 0,0 l/m 7,3 km/h (2 Bft) S 1,00 h 0,254 mm 368 W/m -2,3 C 16,1 C 11,3 km/h (2 Bft)
08/12/2007 12:00 16,4 C 44 % 1005,8 hPa 0,0 l/m 7,9 km/h (2 Bft) S 1,00 h 0,279 mm 382 W/m 3,5 C 16,4 C 11,6 km/h (2 Bft)
08/12/2007 13:00 15,6 C 60 % 1006,0 hPa 0,0 l/m 4,8 km/h (1 Bft) SE 1,00 h 0,279 mm 348 W/m 7,8 C 15,6 C 9,0 km/h (2 Bft)
08/12/2007 14:00 15,4 C 53 % 1006,5 hPa 0,0 l/m 2,9 km/h (1 Bft) SE 1,00 h 0,203 mm 269 W/m 5,8 C 15,4 C 5,2 km/h (1 Bft)
08/12/2007 15:00 14,9 C 49 % 1006,9 hPa 0,0 l/m 0,2 km/h (0 Bft) S-SE 0,77 h 0,178 mm 123 W/m 4,2 C 14,9 C 0,9 km/h (0 Bft)
08/12/2007 16:00 13,0 C 56 % 1007,3 hPa 0,0 l/m 1,0 km/h (0 Bft) S-SE 0,00 h 0,076 mm 28 W/m 4,4 C 13,0 C 2,1 km/h (1 Bft)
08/12/2007 17:00 11,9 C 59 % 1007,6 hPa 0,0 l/m 0,7 km/h (0 Bft) S-SE 0,00 h 0,025 mm 0 W/m 4,0 C 11,9 C 1,4 km/h (1 Bft)
08/12/2007 18:00 11,1 C 61 % 1008,1 hPa 0,0 l/m 2,6 km/h (1 Bft) S-SE 0,00 h 0,000 mm 0 W/m 3,8 C 11,1 C 4,3 km/h (1 Bft)
08/12/2007 19:00 10,7 C 52 % 1007,8 hPa 0,0 l/m 3,5 km/h (1 Bft) N-NO 0,00 h 0,051 mm 0 W/m 1,1 C 10,7 C 5,9 km/h (2 Bft)
08/12/2007 20:00 10,2 C 47 % 1008,0 hPa 0,0 l/m 4,2 km/h (1 Bft) O-NO 0,00 h 0,051 mm 0 W/m -0,7 C 10,1 C 6,4 km/h (2 Bft)
08/12/2007 21:00 9,7 C 44 % 1007,8 hPa 0,0 l/m 3,1 km/h (1 Bft) N-NO 0,00 h 0,051 mm 0 W/m -2,0 C 9,5 C 4,8 km/h (1 Bft)
08/12/2007 22:00 9,5 C 42 % 1007,4 hPa 0,0 l/m 3,9 km/h (1 Bft) O 0,00 h 0,051 mm 0 W/m -2,9 C 9,3 C 5,7 km/h (1 Bft)
08/12/2007 23:00 9,3 C 40 % 1007,0 hPa 0,0 l/m 7,3 km/h (2 Bft) O-NO 0,00 h 0,051 mm 0 W/m -3,6 C 8,4 C 10,5 km/h (2 Bft)
09/12/2007 00:00 8,7 C 42 % 1006,6 hPa 0,0 l/m 1,8 km/h (1 Bft) O-NO 0,00 h 0,076 mm 0 W/m -3,5 C 8,6 C 3,4 km/h (1 Bft)
09/12/2007 01:00 8,6 C 42 % 1005,9 hPa 0,0 l/m 4,8 km/h (1 Bft) O-NO 0,00 h 0,051 mm 0 W/m -3,6 C 8,0 C 7,0 km/h (2 Bft)
09/12/2007 02:00 8,0 C 46 % 1005,0 hPa 0,0 l/m 6,1 km/h (2 Bft) S-SO 0,00 h 0,051 mm 0 W/m -2,8 C 7,2 C 8,2 km/h (2 Bft)
09/12/2007 03:00 8,4 C 49 % 1004,9 hPa 0,4 l/m 6,7 km/h (2 Bft) NO 0,00 h 0,051 mm 0 W/m -1,7 C 7,5 C 9,3 km/h (2 Bft)
09/12/2007 04:00 6,6 C 74 % 1004,6 hPa 0,4 l/m 6,6 km/h (2 Bft) O-SO 0,00 h 0,051 mm 0 W/m 2,2 C 5,5 C 9,7 km/h (2 Bft)
09/12/2007 05:00 6,6 C 80 % 1003,9 hPa 0,0 l/m 3,0 km/h (1 Bft) N-NO 0,00 h 0,025 mm 0 W/m 3,3 C 6,2 C 4,5 km/h (1 Bft)
09/12/2007 06:00 7,0 C 77 % 1003,0 hPa 0,0 l/m 2,5 km/h (1 Bft) N-NO 0,00 h 0,025 mm 0 W/m 3,2 C 6,8 C 3,1 km/h (1 Bft)
09/12/2007 07:00 7,2 C 75 % 1002,1 hPa 0,8 l/m 3,9 km/h (1 Bft) O 0,00 h 0,025 mm 0 W/m 3,1 C 6,7 C 5,5 km/h (1 Bft)
09/12/2007 08:00 6,6 C 83 % 1001,8 hPa 1,6 l/m 3,0 km/h (1 Bft) O-NO 0,00 h 0,025 mm 8 W/m 3,9 C 6,4 C 4,5 km/h (1 Bft)
09/12/2007 09:00 6,3 C 87 % 1001,3 hPa 0,0 l/m 4,0 km/h (1 Bft) NE 0,00 h 0,000 mm 22 W/m 4,3 C 5,7 C 6,3 km/h (2 Bft)
09/12/2007 10:00 7,0 C 90 % 999,8 hPa 0,0 l/m 12,9 km/h (3 Bft) O-SO 0,00 h 0,025 mm 72 W/m 5,5 C 4,6 C 17,2 km/h (3 Bft)
09/12/2007 11:00 10,1 C 89 % 998,8 hPa 0,0 l/m 14,1 km/h (3 Bft) SO 0,78 h 0,051 mm 302 W/m 8,4 C 9,0 C 18,5 km/h (3 Bft)
09/12/2007 12:00 13,6 C 74 % 997,1 hPa 0,0 l/m 22,0 km/h (4 Bft) SO 1,00 h 0,178 mm 378 W/m 8,8 C 13,6 C 28,5 km/h (4 Bft)
09/12/2007 13:00 16,5 C 41 % 996,8 hPa 0,0 l/m 21,3 km/h (4 Bft) O-NO 1,00 h 0,279 mm 349 W/m 3,0 C 16,5 C 31,7 km/h (5 Bft)
09/12/2007 14:00 16,7 C 32 % 997,6 hPa 0,0 l/m 17,7 km/h (3 Bft) O 1,00 h 0,356 mm 273 W/m -0,1 C 16,7 C 26,7 km/h (4 Bft)
09/12/2007 15:00 15,4 C 34 % 997,8 hPa 0,0 l/m 22,8 km/h (4 Bft) O 0,60 h 0,305 mm 125 W/m -0,3 C 15,4 C 33,9 km/h (5 Bft)
09/12/2007 16:00 12,8 C 49 % 997,9 hPa 0,0 l/m 28,9 km/h (5 Bft) O-SO 0,23 h 0,254 mm 26 W/m 2,2 C 12,8 C 39,2 km/h (6 Bft)
09/12/2007 17:00 11,3 C 53 % 997,7 hPa 0,0 l/m 20,4 km/h (4 Bft) SO 0,00 h 0,178 mm 0 W/m 2,1 C 11,3 C 27,9 km/h (4 Bft)
09/12/2007 18:00 11,7 C 50 % 998,4 hPa 0,0 l/m 19,3 km/h (3 Bft) O-SO 0,00 h 0,127 mm 0 W/m 1,5 C 11,7 C 28,3 km/h (4 Bft)
09/12/2007 19:00 11,8 C 46 % 998,7 hPa 0,0 l/m 20,6 km/h (4 Bft) O 0,00 h 0,127 mm 0 W/m 0,4 C 11,8 C 31,7 km/h (5 Bft)
09/12/2007 20:00 12,2 C 37 % 999,4 hPa 0,0 l/m 26,3 km/h (4 Bft) O-NO 0,00 h 0,127 mm 0 W/m -2,0 C 12,2 C 39,5 km/h (6 Bft)
09/12/2007 21:00 12,0 C 39 % 999,7 hPa 0,0 l/m 18,6 km/h (3 Bft) O-NO 0,00 h 0,178 mm 0 W/m -1,6 C 12,0 C 28,3 km/h (4 Bft)
09/12/2007 22:00 11,6 C 41 % 1000,5 hPa 0,0 l/m 18,2 km/h (3 Bft) O-NO 0,00 h 0,152 mm 0 W/m -1,2 C 11,6 C 27,2 km/h (4 Bft)
09/12/2007 23:00 9,5 C 54 % 1000,6 hPa 0,0 l/m 21,1 km/h (4 Bft) O-SO 0,00 h 0,127 mm 0 W/m 0,7 C 6,8 C 27,9 km/h (4 Bft)
Min-Date _ 09/12/07 08/12/07 09/12/07 - 03/12/07 - - - - 08/12/07 09/12/07 03/12/07
_ Min-Heure 09:02 10:38 12:45 - 04:50 - - - - 10:38 10:31 04:50
Minimum _ 5,9 C 20 % 996,6 hPa - 0,0 km/h (0 Bft) - - - - -7,0 C 3,3 C 0,0 km/h (0 Bft)
Max-Date _ 08/12/07 09/12/07 05/12/07 09/12/07 03/12/07 - 03/12/07 03/12/07 06/12/07 09/12/07 08/12/07 03/12/07
_ Max-Heure 12:08 11:14 10:15 08:15 07:57 - 08:27 13:00 12:40 12:16 12:08 12:08
Maximum _ 17,5 C 93 % 1023,3 hPa 1,6 l/m 45,1 km/h
O-SO (6 Bft)
- 0,02 h 0,457 mm 431 W/m 10,2 C 17,5 C 64,4 km/h
O-NO (8 Bft)
Moyenne _ 11,3 C 58 % 1010,1 hPa #3,2 l/m 9,9 km/h (2 Bft) O-NO #43:03 h #18,167 mm 177 W/m 2,6 C 11,2 C 14,4 km/h (3 Bft)
Roquefort les pins